createdAt,value
2018-02-16T00:04:44.895Z,-58
2018-02-16T00:14:44.995Z,-59
2018-02-16T00:24:44.907Z,-58
2018-02-16T00:34:44.986Z,-58
2018-02-16T00:44:45.257Z,-58
2018-02-16T00:54:45.005Z,-58
2018-02-16T01:04:45.076Z,-59
2018-02-16T01:14:44.987Z,-57
2018-02-16T01:24:45.079Z,-57
2018-02-16T01:34:45.031Z,-59
2018-02-16T01:44:45.116Z,-57
2018-02-16T01:59:02.847Z,-59
2018-02-16T02:04:44.929Z,-58
2018-02-16T02:14:45.261Z,-59
2018-02-16T02:24:45.120Z,-58
2018-02-16T02:34:45.170Z,-59
2018-02-16T02:44:45.159Z,-59
2018-02-16T02:54:45.111Z,-59
2018-02-16T03:04:45.102Z,-58
2018-02-16T03:14:45.131Z,-58
2018-02-16T03:24:45.099Z,-59
2018-02-16T03:34:45.142Z,-59
2018-02-16T03:44:45.102Z,-58
2018-02-16T03:54:45.066Z,-58
2018-02-16T04:04:45.125Z,-58
2018-02-16T04:14:45.112Z,-58
2018-02-16T04:24:45.143Z,-58
2018-02-16T04:34:45.114Z,-58
2018-02-16T04:44:45.184Z,-58
2018-02-16T04:54:45.109Z,-58
2018-02-16T05:04:45.234Z,-59
2018-02-16T05:14:45.196Z,-59
2018-02-16T05:24:45.120Z,-58
2018-02-16T05:34:45.170Z,-59
2018-02-16T05:44:45.170Z,-58
2018-02-16T05:54:45.186Z,-59
2018-02-16T06:04:45.191Z,-60
2018-02-16T06:14:45.269Z,-59
2018-02-16T06:24:45.190Z,-59
2018-02-16T06:34:45.273Z,-60
2018-02-16T06:44:45.198Z,-59
2018-02-16T06:54:45.269Z,-60
2018-02-16T07:04:45.210Z,-59
2018-02-16T07:14:45.221Z,-57
2018-02-16T07:24:45.299Z,-60
2018-02-16T07:34:45.230Z,-60
2018-02-16T07:44:45.415Z,-60
2018-02-16T07:54:45.529Z,-59
2018-02-16T08:04:45.339Z,-56
2018-02-16T08:14:45.380Z,-60
2018-02-16T08:24:45.318Z,-60
2018-02-16T08:34:45.342Z,-60
2018-02-16T08:44:45.274Z,-59
2018-02-16T08:54:45.335Z,-61
2018-02-16T09:04:45.312Z,-61
2018-02-16T09:14:45.424Z,-61
2018-02-16T09:24:45.320Z,-60
2018-02-16T09:34:48.996Z,-59
2018-02-16T09:44:45.564Z,-60
2018-02-16T09:54:45.464Z,-60
2018-02-16T10:04:45.503Z,-60
2018-02-16T10:14:45.538Z,-60
2018-02-16T10:24:45.448Z,-60
2018-02-16T10:34:45.541Z,-60
2018-02-16T10:44:45.479Z,-59
2018-02-16T10:54:45.396Z,-59
2018-02-16T11:04:45.402Z,-58
2018-02-16T11:14:45.493Z,-60
2018-02-16T11:24:45.540Z,-58
2018-02-16T11:34:45.442Z,-57
2018-02-16T11:44:45.497Z,-58
2018-02-16T11:54:45.820Z,-58
2018-02-16T12:04:45.526Z,-59
2018-02-16T12:14:45.487Z,-59
2018-02-16T12:24:45.617Z,-59
2018-02-16T12:34:45.506Z,-60
2018-02-16T12:44:45.688Z,-59
2018-02-16T12:54:45.874Z,-59
2018-02-16T13:04:45.656Z,-59
2018-02-16T13:14:45.576Z,-60
2018-02-16T13:24:45.596Z,-60
2018-02-16T13:34:45.692Z,-59
2018-02-16T13:44:45.685Z,-60
2018-02-16T13:54:46.103Z,-66
2018-02-16T14:04:45.638Z,-59
2018-02-16T14:14:45.580Z,-62
2018-02-16T14:24:47.192Z,-67
2018-02-16T14:34:45.631Z,-64
2018-02-16T14:44:45.602Z,-62
2018-02-16T14:54:45.718Z,-62
2018-02-16T15:04:45.618Z,-60
2018-02-16T15:14:45.893Z,-57
2018-02-16T15:24:45.628Z,-59
2018-02-16T15:34:45.702Z,-57
2018-02-16T15:44:45.638Z,-56
2018-02-16T15:54:45.759Z,-56
2018-02-16T16:04:45.832Z,-55
2018-02-16T16:14:45.654Z,-57
2018-02-16T16:24:45.700Z,-58
2018-02-16T16:34:45.653Z,-56
2018-02-16T16:44:45.724Z,-56
2018-02-16T16:54:45.660Z,-56
2018-02-16T17:04:45.726Z,-56
2018-02-16T17:14:45.716Z,-57
2018-02-16T17:31:12.940Z,-59
2018-02-16T17:34:45.863Z,-60
2018-02-16T17:44:46.228Z,-60
2018-02-16T17:54:46.511Z,-55
2018-02-16T18:04:45.785Z,-58
2018-02-16T18:14:45.815Z,-55
2018-02-16T18:24:45.753Z,-57
2018-02-16T18:34:45.872Z,-57
2018-02-16T18:44:45.818Z,-53
2018-02-16T18:54:45.882Z,-56
2018-02-16T19:04:45.810Z,-57
2018-02-16T19:14:46.283Z,-56
2018-02-16T19:24:45.972Z,-55
2018-02-16T19:34:46.737Z,-56
2018-02-16T19:44:47.435Z,-56
2018-02-16T19:54:49.273Z,-55
2018-02-16T20:04:50.780Z,-56
2018-02-16T20:14:47.464Z,-56
2018-02-16T20:24:49.101Z,-56
2018-02-16T20:34:48.871Z,-55
2018-02-16T20:44:45.994Z,-57
2018-02-16T20:54:46.274Z,-64
2018-02-16T21:04:46.384Z,-61
2018-02-16T21:14:46.090Z,-62
2018-02-16T21:24:45.988Z,-55
2018-02-16T21:34:45.964Z,-56
2018-02-16T21:44:45.910Z,-57
2018-02-16T21:54:45.994Z,-56
2018-02-16T22:04:46.000Z,-57
2018-02-16T22:14:45.998Z,-58
2018-02-16T22:24:45.978Z,-55
2018-02-16T22:34:45.989Z,-57
2018-02-16T22:44:46.058Z,-55
2018-02-16T22:54:45.981Z,-58
2018-02-16T23:04:46.033Z,-57
2018-02-16T23:14:46.092Z,-57
2018-02-16T23:24:46.020Z,-55
2018-02-16T23:34:46.153Z,-56
2018-02-16T23:44:46.030Z,-56
2018-02-16T23:54:45.997Z,-56
